createdAt,value
2019-04-11T00:01:53.471Z,14.43
2019-04-11T00:04:20.487Z,14.77
2019-04-11T00:06:47.845Z,14.30
2019-04-11T00:09:16.679Z,14.80
2019-04-11T00:11:44.184Z,13.83
2019-04-11T00:14:12.107Z,15.13
2019-04-11T00:16:39.506Z,13.30
2019-04-11T00:19:07.306Z,14.87
2019-04-11T00:21:34.995Z,13.97
2019-04-11T00:24:02.760Z,14.80
2019-04-11T00:26:30.578Z,14.97
2019-04-11T00:28:58.350Z,13.70
2019-04-11T00:31:25.358Z,13.60
2019-04-11T00:33:52.337Z,14.17
2019-04-11T00:36:20.020Z,13.50
2019-04-11T00:38:47.837Z,13.67
2019-04-11T00:41:15.504Z,14.47
2019-04-11T00:43:43.948Z,13.60
2019-04-11T00:46:11.936Z,13.63
2019-04-11T00:48:39.047Z,14.47
2019-04-11T00:51:05.971Z,12.90
2019-04-11T00:53:33.991Z,12.73
2019-04-11T00:56:01.957Z,13.83
2019-04-11T00:58:29.746Z,13.83
2019-04-11T01:00:57.534Z,13.67
2019-04-11T01:03:24.805Z,13.63
2019-04-11T01:05:51.941Z,12.33
2019-04-11T01:08:19.804Z,14.37
2019-04-11T01:10:47.715Z,14.40
2019-04-11T01:13:15.710Z,13.17
2019-04-11T01:15:49.859Z,13.73
2019-04-11T01:18:18.044Z,13.17
2019-04-11T01:20:46.002Z,13.13
2019-04-11T01:23:13.092Z,12.43
2019-04-11T01:25:40.990Z,13.40
2019-04-11T01:28:07.883Z,13.87
2019-04-11T01:30:41.289Z,13.37
2019-04-11T01:33:08.292Z,13.83
2019-04-11T01:35:35.253Z,12.40
2019-04-11T01:38:02.335Z,12.73
2019-04-11T01:40:29.844Z,11.83
2019-04-11T01:42:57.659Z,12.73
2019-04-11T01:45:26.105Z,12.90
2019-04-11T01:48:12.286Z,12.00
2019-04-11T01:50:39.160Z,12.30
2019-04-11T01:53:06.811Z,12.67
2019-04-11T01:55:34.751Z,12.87
2019-04-11T01:58:02.565Z,12.07
2019-04-11T02:00:36.607Z,12.20
2019-04-11T02:03:04.919Z,11.13
2019-04-11T02:05:32.825Z,12.40
2019-04-11T02:08:00.769Z,12.63
2019-04-11T02:10:28.693Z,12.47
2019-04-11T02:12:56.325Z,12.53
2019-04-11T02:15:25.124Z,12.23
2019-04-11T02:17:52.126Z,11.40
2019-04-11T02:20:18.986Z,11.67
2019-04-11T02:23:06.659Z,11.40
2019-04-11T02:26:03.017Z,11.73
2019-04-11T02:28:30.932Z,12.20
2019-04-11T02:30:58.101Z,11.03
2019-04-11T02:33:26.742Z,11.83
2019-04-11T02:35:54.383Z,11.90
2019-04-11T02:38:23.550Z,10.37
2019-04-11T02:40:50.565Z,10.80
2019-04-11T02:43:18.032Z,11.57
2019-04-11T02:45:56.981Z,11.23
2019-04-11T02:48:16.092Z,12.07
2019-04-11T02:50:43.565Z,10.83
2019-04-11T02:53:10.623Z,12.23
2019-04-11T02:55:38.652Z,10.57
2019-04-11T02:58:07.348Z,10.73
2019-04-11T03:00:35.958Z,11.07
2019-04-11T03:03:05.676Z,10.63
2019-04-11T03:05:34.487Z,11.10
2019-04-11T03:08:06.972Z,11.30
2019-04-11T03:10:31.389Z,10.20
2019-04-11T03:13:00.766Z,10.63
2019-04-11T03:15:43.047Z,10.60
2019-04-11T03:18:02.016Z,10.33
2019-04-11T03:20:34.495Z,10.63
2019-04-11T03:23:00.127Z,10.57
2019-04-11T03:25:24.626Z,11.37
2019-04-11T03:27:53.750Z,10.60
2019-04-11T03:30:34.895Z,11.13
2019-04-11T03:36:07.031Z,10.53
2019-04-11T03:38:17.408Z,9.80
2019-04-11T03:40:38.685Z,10.40
2019-04-11T03:43:01.241Z,9.70
2019-04-11T03:45:38.146Z,9.83
2019-04-11T03:48:02.183Z,10.33
2019-04-11T03:50:18.907Z,10.87
2019-04-11T03:52:43.091Z,9.93
2019-04-11T03:55:11.139Z,10.07
2019-04-11T03:57:39.577Z,10.13
2019-04-11T04:00:06.693Z,9.90
2019-04-11T04:02:34.844Z,9.77
2019-04-11T04:05:03.807Z,9.60
2019-04-11T04:07:31.977Z,8.83
2019-04-11T04:10:00.368Z,9.97
2019-04-11T04:12:29.302Z,9.10
2019-04-11T04:15:09.135Z,9.53
2019-04-11T04:17:59.536Z,9.30
2019-04-11T04:20:59.639Z,9.50
2019-04-11T04:23:31.515Z,9.47
2019-04-11T04:26:00.891Z,10.37
2019-04-11T04:28:29.463Z,8.83
2019-04-11T04:30:57.902Z,8.83
2019-04-11T04:33:26.602Z,9.13
2019-04-11T04:35:55.809Z,9.10
2019-04-11T04:38:23.947Z,10.10
2019-04-11T04:41:07.432Z,8.90
2019-04-11T04:43:22.679Z,10.85
2019-04-11T04:46:08.818Z,9.80
2019-04-11T04:48:22.453Z,10.28
2019-04-11T04:50:48.797Z,10.00
2019-04-11T04:53:16.611Z,8.83
2019-04-11T04:55:45.687Z,8.53
2019-04-11T04:58:13.252Z,9.03
2019-04-11T05:00:40.362Z,9.57
2019-04-11T05:03:07.802Z,9.23
2019-04-11T05:05:35.817Z,8.67
2019-04-11T05:08:03.070Z,9.50
2019-04-11T05:10:30.605Z,8.93
2019-04-11T05:12:59.205Z,8.90
2019-04-11T05:15:26.380Z,9.50
2019-04-11T05:17:53.439Z,9.57
2019-04-11T05:20:21.831Z,9.33
2019-04-11T05:22:49.273Z,8.90
2019-04-11T05:25:16.340Z,8.93
2019-04-11T05:27:43.344Z,9.53
2019-04-11T05:30:11.249Z,8.43
2019-04-11T05:32:38.103Z,8.47
2019-04-11T05:35:05.317Z,8.80
2019-04-11T05:37:33.258Z,9.47
2019-04-11T05:40:00.885Z,9.07
2019-04-11T05:42:29.150Z,8.70
2019-04-11T05:44:56.960Z,9.20
2019-04-11T05:47:23.938Z,8.53
2019-04-11T05:50:13.581Z,8.23
2019-04-11T05:52:39.983Z,9.60
2019-04-11T05:55:11.751Z,9.00
2019-04-11T05:57:41.394Z,9.23
2019-04-11T06:00:14.108Z,9.50
2019-04-11T06:02:43.704Z,9.27
2019-04-11T06:05:17.253Z,9.67
2019-04-11T06:07:58.435Z,9.10
2019-04-11T06:10:28.858Z,8.57
2019-04-11T06:13:22.661Z,9.13
2019-04-11T06:15:51.919Z,8.87
2019-04-11T06:18:32.332Z,9.07
2019-04-11T06:20:57.841Z,8.97
2019-04-11T06:23:45.659Z,8.63
2019-04-11T06:26:32.337Z,9.17
2019-04-11T06:29:16.406Z,8.97
2019-04-11T06:32:00.243Z,9.23
2019-04-11T06:34:28.407Z,9.50
2019-04-11T06:37:11.810Z,8.40
2019-04-11T06:39:43.344Z,8.47
2019-04-11T06:42:29.895Z,9.00
2019-04-11T06:45:25.860Z,9.30
2019-04-11T06:48:18.443Z,8.50
2019-04-11T06:50:53.448Z,9.23
2019-04-11T06:53:25.917Z,8.27
2019-04-11T06:56:12.594Z,8.50
2019-04-11T06:58:43.797Z,8.43
2019-04-11T07:01:14.643Z,8.03
2019-04-11T07:03:46.866Z,8.47
2019-04-11T07:06:18.102Z,8.63
2019-04-11T07:08:58.907Z,8.30
2019-04-11T07:11:34.478Z,8.50
2019-04-11T07:14:27.036Z,7.60
2019-04-11T07:17:13.434Z,7.93
2019-04-11T07:20:04.649Z,7.90
2019-04-11T07:22:50.892Z,7.83
2019-04-11T07:25:43.193Z,7.93
2019-04-11T07:28:39.349Z,7.30
2019-04-11T07:31:25.445Z,7.53
2019-04-11T07:34:31.507Z,7.03
2019-04-11T07:37:15.016Z,7.10
2019-04-11T07:39:58.605Z,7.23
2019-04-11T07:43:08.147Z,7.13
2019-04-11T07:45:40.300Z,7.00
2019-04-11T07:48:12.900Z,7.60
2019-04-11T07:50:40.032Z,6.70
2019-04-11T07:53:07.143Z,6.87
2019-04-11T07:55:34.374Z,6.23
2019-04-11T07:58:19.679Z,6.23
2019-04-11T08:01:01.495Z,6.80
2019-04-11T08:03:42.007Z,6.43
2019-04-11T08:06:33.847Z,6.33
2019-04-11T08:09:26.725Z,6.80
2019-04-11T08:12:05.299Z,6.57
2019-04-11T08:14:51.103Z,6.50
2019-04-11T08:17:33.298Z,6.33
2019-04-11T08:20:11.676Z,6.07
2019-04-11T08:22:47.504Z,6.23
2019-04-11T08:25:25.678Z,5.87
2019-04-11T08:28:02.183Z,5.80
2019-04-11T08:30:34.803Z,6.07
2019-04-11T08:33:02.775Z,5.30
2019-04-11T08:35:52.010Z,5.00
2019-04-11T08:38:34.530Z,5.37
2019-04-11T08:41:07.399Z,5.13
2019-04-11T08:43:35.271Z,5.20
2019-04-11T08:46:06.705Z,5.30
2019-04-11T08:48:35.437Z,4.63
2019-04-11T08:51:05.170Z,4.87
2019-04-11T08:54:04.857Z,5.37
2019-04-11T08:56:32.014Z,6.00
2019-04-11T08:59:43.990Z,5.90
2019-04-11T09:02:35.465Z,5.93
2019-04-11T09:05:33.344Z,6.00
2019-04-11T09:08:20.430Z,6.20
2019-04-11T09:11:06.584Z,6.00
2019-04-11T09:14:06.115Z,5.90
2019-04-11T09:16:41.579Z,5.27
2019-04-11T09:19:16.772Z,5.57
2019-04-11T09:22:02.299Z,5.20
2019-04-11T09:24:48.986Z,5.70
2019-04-11T09:27:38.474Z,5.57
2019-04-11T09:30:12.989Z,6.63
2019-04-11T09:33:08.771Z,5.63
2019-04-11T09:35:37.391Z,6.60
2019-04-11T09:38:04.564Z,6.60
2019-04-11T09:40:41.592Z,5.53
2019-04-11T09:43:17.785Z,6.30
2019-04-11T09:45:56.164Z,5.90
2019-04-11T09:48:31.627Z,6.30
2019-04-11T09:51:07.763Z,5.83
2019-04-11T09:53:36.637Z,6.23
2019-04-11T09:56:24.956Z,5.77
2019-04-11T09:58:53.178Z,6.03
2019-04-11T10:01:56.135Z,6.10
2019-04-11T10:04:23.442Z,6.10
2019-04-11T10:07:14.101Z,5.70
2019-04-11T10:10:02.419Z,6.27
2019-04-11T10:12:48.628Z,5.90
2019-04-11T10:15:16.031Z,5.17
2019-04-11T10:18:01.615Z,5.30
2019-04-11T10:20:28.802Z,5.77
2019-04-11T10:23:16.470Z,4.93
2019-04-11T10:25:51.642Z,5.53
2019-04-11T10:28:44.256Z,6.00
2019-04-11T10:31:22.199Z,5.20
2019-04-11T10:33:59.409Z,5.47
2019-04-11T10:36:32.355Z,4.73
2019-04-11T10:39:13.216Z,5.57
2019-04-11T10:41:42.327Z,5.13
2019-04-11T10:44:09.703Z,5.00
2019-04-11T10:46:45.744Z,5.17
2019-04-11T10:49:21.981Z,5.43
2019-04-11T10:52:11.987Z,4.93
2019-04-11T10:54:40.816Z,5.63
2019-04-11T10:57:32.028Z,4.90
2019-04-11T10:59:59.431Z,5.23
2019-04-11T11:02:49.399Z,5.07
2019-04-11T11:05:19.135Z,4.60
2019-04-11T11:07:46.066Z,5.33
2019-04-11T11:10:16.093Z,5.20
2019-04-11T11:13:11.793Z,5.05
2019-04-11T11:15:42.652Z,4.67
2019-04-11T11:18:52.915Z,5.00
2019-04-11T11:21:02.266Z,5.12
2019-04-11T11:23:45.830Z,4.85
2019-04-11T11:26:22.577Z,4.53
2019-04-11T11:29:16.882Z,4.62
2019-04-11T11:31:54.450Z,5.10
2019-04-11T11:34:38.843Z,5.10
2019-04-11T11:37:35.420Z,4.90
2019-04-11T11:40:38.443Z,4.95
2019-04-11T11:43:19.032Z,4.60
2019-04-11T11:46:12.341Z,5.25
2019-04-11T11:48:41.751Z,5.08
2019-04-11T11:51:20.911Z,5.25
2019-04-11T11:54:07.172Z,5.25
2019-04-11T11:56:35.426Z,4.72
2019-04-11T11:59:20.539Z,5.50
2019-04-11T12:02:00.267Z,5.00
2019-04-11T12:04:49.764Z,4.85
2019-04-11T12:07:18.940Z,5.62
2019-04-11T12:10:15.466Z,5.53
2019-04-11T12:13:04.910Z,5.72
2019-04-11T12:15:54.830Z,5.65
2019-04-11T12:18:43.952Z,5.40
2019-04-11T12:21:11.521Z,5.90
2019-04-11T12:24:03.779Z,5.78
2019-04-11T12:26:30.399Z,6.05
2019-04-11T12:29:10.364Z,5.78
2019-04-11T12:31:38.013Z,5.40
2019-04-11T12:34:44.998Z,5.12
2019-04-11T12:37:19.812Z,5.62
2019-04-11T12:40:00.786Z,5.28
2019-04-11T12:42:31.225Z,6.05
2019-04-11T12:45:16.747Z,5.70
2019-04-11T12:47:47.141Z,5.80
2019-04-11T12:50:30.800Z,5.37
2019-04-11T12:53:09.168Z,5.37
2019-04-11T12:55:58.411Z,5.80
2019-04-11T12:58:47.448Z,5.80
2019-04-11T13:01:33.987Z,5.60
2019-04-11T13:04:21.749Z,5.80
2019-04-11T13:07:14.259Z,6.27
2019-04-11T13:09:47.971Z,6.43
2019-04-11T13:12:23.109Z,6.37
2019-04-11T13:15:12.074Z,6.57
2019-04-11T13:17:41.791Z,6.00
2019-04-11T13:20:26.957Z,6.57
2019-04-11T13:22:56.368Z,5.80
2019-04-11T13:25:54.039Z,6.20
2019-04-11T13:28:20.919Z,6.20
2019-04-11T13:31:16.310Z,5.40
2019-04-11T13:33:43.350Z,6.30
2019-04-11T13:36:41.772Z,6.50
2019-04-11T13:39:08.855Z,6.60
2019-04-11T13:41:44.027Z,6.40
2019-04-11T13:44:31.567Z,6.47
2019-04-11T13:47:15.743Z,6.53
2019-04-11T13:49:44.584Z,6.43
2019-04-11T13:52:33.874Z,6.20
2019-04-11T13:55:09.166Z,6.13
2019-04-11T13:57:58.469Z,6.40
2019-04-11T14:00:40.257Z,6.87
2019-04-11T14:03:18.563Z,6.13
2019-04-11T14:05:45.531Z,5.40
2019-04-11T14:08:17.885Z,6.60
2019-04-11T14:10:57.313Z,6.03
2019-04-11T14:13:34.630Z,5.60
2019-04-11T14:16:04.993Z,5.93
2019-04-11T14:18:51.507Z,6.80
2019-04-11T14:21:19.897Z,6.40
2019-04-11T14:23:55.816Z,6.00
2019-04-11T14:26:30.863Z,6.50
2019-04-11T14:29:16.165Z,6.13
2019-04-11T14:31:58.454Z,6.87
2019-04-11T14:34:57.256Z,6.63
2019-04-11T14:37:37.737Z,5.93
2019-04-11T14:40:04.570Z,5.77
2019-04-11T14:42:45.738Z,6.87
2019-04-11T14:45:25.402Z,6.13
2019-04-11T14:48:14.700Z,6.63
2019-04-11T14:50:57.264Z,6.47
2019-04-11T14:53:42.123Z,6.63
2019-04-11T14:56:09.071Z,6.70
2019-04-11T14:59:04.615Z,6.47
2019-04-11T15:01:31.513Z,6.47
2019-04-11T15:04:24.044Z,7.30
2019-04-11T15:06:51.724Z,6.27
2019-04-11T15:09:38.283Z,5.97
2019-04-11T15:12:17.853Z,6.97
2019-04-11T15:15:22.959Z,6.70
2019-04-11T15:17:55.624Z,7.10
2019-04-11T15:20:24.598Z,6.50
2019-04-11T15:22:55.651Z,6.07
2019-04-11T15:25:40.852Z,5.93
2019-04-11T15:28:30.427Z,6.57
2019-04-11T15:31:00.896Z,6.10
2019-04-11T15:33:50.323Z,6.23
2019-04-11T15:36:18.655Z,6.43
2019-04-11T15:39:07.383Z,6.00
2019-04-11T15:41:34.463Z,6.90
2019-04-11T15:44:19.732Z,6.23
2019-04-11T15:46:47.880Z,5.63
2019-04-11T15:49:34.938Z,6.27
2019-04-11T15:52:10.983Z,6.53
2019-04-11T15:54:53.581Z,5.93
2019-04-11T15:57:31.575Z,5.97
2019-04-11T16:00:20.669Z,6.07
2019-04-11T16:03:05.807Z,5.93
2019-04-11T16:05:52.457Z,6.40
2019-04-11T16:08:30.760Z,5.90
2019-04-11T16:11:17.291Z,6.10
2019-04-11T16:13:51.643Z,6.83
2019-04-11T16:16:21.164Z,6.50
2019-04-11T16:19:06.384Z,5.80
2019-04-11T16:21:44.745Z,6.10
2019-04-11T16:24:18.149Z,5.97
2019-04-11T16:26:53.175Z,6.40
2019-04-11T16:29:24.519Z,6.00
2019-04-11T16:31:52.421Z,6.40
2019-04-11T16:34:48.143Z,5.83
2019-04-11T16:37:10.946Z,5.70
2019-04-11T16:39:55.974Z,5.60
2019-04-11T16:42:28.607Z,5.73
2019-04-11T16:45:15.091Z,5.53
2019-04-11T16:48:13.684Z,6.07
2019-04-11T16:50:40.711Z,5.90
2019-04-11T16:53:10.363Z,6.10
2019-04-11T16:55:36.871Z,6.23
2019-04-11T16:58:04.124Z,6.37
2019-04-11T17:00:31.101Z,6.30
2019-04-11T17:02:58.071Z,6.50
2019-04-11T17:05:26.744Z,6.97
2019-04-11T17:08:25.990Z,6.67
2019-04-11T17:11:08.036Z,6.87
2019-04-11T17:13:35.049Z,5.77
2019-04-11T17:16:02.795Z,6.23
2019-04-11T17:18:34.089Z,6.40
2019-04-11T17:20:58.374Z,6.10
2019-04-11T17:23:25.359Z,5.60
2019-04-11T17:25:53.009Z,5.73
2019-04-11T17:28:22.775Z,5.43
2019-04-11T17:30:49.440Z,6.13
2019-04-11T17:33:16.361Z,5.63
2019-04-11T17:35:43.339Z,5.60
2019-04-11T17:38:10.358Z,6.10
2019-04-11T17:40:39.428Z,5.93
2019-04-11T17:43:06.116Z,6.10
2019-04-11T17:45:33.045Z,6.00
2019-04-11T17:47:59.990Z,5.30
2019-04-11T17:50:26.995Z,5.20
2019-04-11T17:52:54.774Z,6.13
2019-04-11T17:55:24.019Z,6.03
2019-04-11T17:58:00.818Z,6.50
2019-04-11T18:00:31.463Z,5.70
2019-04-11T18:03:01.874Z,6.33
2019-04-11T18:05:31.395Z,6.20
2019-04-11T18:07:58.898Z,5.43
2019-04-11T18:10:26.506Z,5.37
2019-04-11T18:12:55.801Z,5.23
2019-04-11T18:15:25.421Z,5.47
2019-04-11T18:17:52.880Z,5.50
2019-04-11T18:20:20.607Z,5.47
2019-04-11T18:22:50.366Z,5.43
2019-04-11T18:25:20.758Z,4.70
2019-04-11T18:27:52.346Z,5.50
2019-04-11T18:30:20.960Z,5.13
2019-04-11T18:32:52.306Z,5.43
2019-04-11T18:35:20.366Z,5.40
2019-04-11T18:37:49.058Z,5.13
2019-04-11T18:40:20.148Z,4.80
2019-04-11T18:42:47.413Z,5.67
2019-04-11T18:45:19.158Z,5.63
2019-04-11T18:47:46.176Z,5.43
2019-04-11T18:50:14.349Z,5.57
2019-04-11T18:52:42.916Z,5.20
2019-04-11T18:55:10.971Z,5.70
2019-04-11T18:57:38.581Z,6.10
2019-04-11T19:00:09.164Z,5.77
2019-04-11T19:02:37.948Z,5.33
2019-04-11T19:05:05.599Z,5.47
2019-04-11T19:07:32.332Z,5.90
2019-04-11T19:09:59.264Z,5.37
2019-04-11T19:12:26.159Z,6.47
2019-04-11T19:14:53.180Z,5.30
2019-04-11T19:17:20.029Z,6.03
2019-04-11T19:19:48.929Z,5.30
2019-04-11T19:22:15.677Z,5.40
2019-04-11T19:24:42.654Z,6.10
2019-04-11T19:27:09.593Z,5.93
2019-04-11T19:29:38.981Z,5.57
2019-04-11T19:32:06.627Z,5.60
2019-04-11T19:34:37.084Z,6.17
2019-04-11T19:37:04.271Z,5.90
2019-04-11T19:39:36.124Z,6.30
2019-04-11T19:42:25.536Z,5.40
2019-04-11T19:44:54.024Z,6.10
2019-04-11T19:47:24.761Z,6.13
2019-04-11T19:49:54.450Z,5.37
2019-04-11T19:52:26.773Z,5.60
2019-04-11T19:54:55.641Z,5.60
2019-04-11T19:57:23.448Z,5.80
2019-04-11T19:59:53.254Z,5.70
2019-04-11T20:02:23.182Z,5.57
2019-04-11T20:04:50.251Z,5.77
2019-04-11T20:07:21.345Z,5.13
2019-04-11T20:09:48.833Z,5.70
2019-04-11T20:12:16.662Z,5.40
2019-04-11T20:14:48.713Z,6.70
2019-04-11T20:17:19.825Z,6.30
2019-04-11T20:20:06.818Z,5.40
2019-04-11T20:22:39.798Z,5.95
2019-04-11T20:25:06.787Z,5.90
2019-04-11T20:27:34.721Z,5.87
2019-04-11T20:30:04.122Z,5.60
2019-04-11T20:32:35.499Z,5.50
2019-04-11T20:35:04.214Z,5.40
2019-04-11T20:37:39.223Z,5.47
2019-04-11T20:40:01.069Z,4.97
2019-04-11T20:42:28.843Z,5.47
2019-04-11T20:45:01.182Z,5.30
2019-04-11T20:47:38.124Z,6.10
2019-04-11T20:50:08.872Z,5.23
2019-04-11T20:52:40.223Z,5.47
2019-04-11T20:55:10.942Z,5.73
2019-04-11T20:57:40.446Z,4.93
2019-04-11T21:00:12.037Z,4.80
2019-04-11T21:02:38.291Z,5.40
2019-04-11T21:05:05.307Z,5.93
2019-04-11T21:07:32.581Z,5.23
2019-04-11T21:10:03.595Z,5.47
2019-04-11T21:12:28.627Z,6.23
2019-04-11T21:14:55.643Z,4.73
2019-04-11T21:17:28.160Z,5.17
2019-04-11T21:19:55.300Z,6.07
2019-04-11T21:22:24.299Z,5.00
2019-04-11T21:24:50.851Z,4.97
2019-04-11T21:27:18.651Z,5.43
2019-04-11T21:29:45.511Z,5.13
2019-04-11T21:32:14.032Z,5.70
2019-04-11T21:34:41.258Z,5.07
2019-04-11T21:37:08.137Z,5.23
2019-04-11T21:39:34.910Z,4.83
2019-04-11T21:42:05.881Z,5.27
2019-04-11T21:44:31.019Z,5.23
2019-04-11T21:46:58.047Z,5.30
2019-04-11T21:49:24.993Z,4.77
2019-04-11T21:51:51.920Z,5.33
2019-04-11T21:54:18.840Z,5.27
2019-04-11T21:56:49.305Z,4.83
2019-04-11T21:59:14.511Z,5.17
2019-04-11T22:01:42.277Z,4.70
2019-04-11T22:04:09.496Z,4.93
2019-04-11T22:06:37.421Z,5.80
2019-04-11T22:09:06.559Z,4.80
2019-04-11T22:11:33.605Z,5.17
2019-04-11T22:14:00.591Z,5.00
2019-04-11T22:16:27.487Z,4.67
2019-04-11T22:18:54.524Z,4.67
2019-04-11T22:21:21.398Z,4.90
2019-04-11T22:23:49.241Z,5.07
2019-04-11T22:26:16.263Z,5.80
2019-04-11T22:28:43.239Z,5.60
2019-04-11T22:31:10.190Z,6.40
2019-04-11T22:33:41.415Z,5.20
2019-04-11T22:36:08.293Z,5.07
2019-04-11T22:38:35.185Z,4.80
2019-04-11T22:41:02.748Z,4.83
2019-04-11T22:43:29.811Z,5.10
2019-04-11T22:45:57.040Z,4.63
2019-04-11T22:48:23.845Z,5.13
2019-04-11T22:50:50.847Z,4.77
2019-04-11T22:53:17.709Z,5.27
2019-04-11T22:55:44.587Z,4.70
2019-04-11T22:58:13.925Z,5.13
2019-04-11T23:00:40.136Z,5.03
2019-04-11T23:03:28.974Z,4.90
2019-04-11T23:05:55.845Z,5.63
2019-04-11T23:08:22.788Z,5.37
2019-04-11T23:10:49.827Z,4.90
2019-04-11T23:13:16.572Z,5.20
2019-04-11T23:15:44.375Z,5.27
2019-04-11T23:18:11.872Z,5.50
2019-04-11T23:20:43.802Z,4.83
2019-04-11T23:23:11.078Z,4.77
2019-04-11T23:25:37.802Z,5.03
2019-04-11T23:28:04.767Z,5.07
2019-04-11T23:30:31.562Z,5.17
2019-04-11T23:32:58.421Z,5.50
2019-04-11T23:35:25.197Z,5.60
2019-04-11T23:37:52.129Z,5.07
2019-04-11T23:40:20.875Z,5.30
2019-04-11T23:42:50.088Z,5.10
2019-04-11T23:45:21.399Z,5.07
2019-04-11T23:47:48.207Z,5.33
2019-04-11T23:50:15.147Z,3.83
2019-04-11T23:52:42.052Z,5.47
2019-04-11T23:55:09.223Z,5.10
2019-04-11T23:57:36.084Z,5.87
